Terminal Aerodrome Forecast
Issued by NWS

Home | Current Version | Previous Version | Text Only | Print | Product List | Glossary On
Versions: 1 2 3 4 5 6 7 8 9 10 11 12 13 14
000
FTAK31 PAJN 220200 AAA
TAFAJN
TAF AMD
PAJN 220201Z 2202/2224 00000KT 5SM -SHRA BR BKN007 OVC030
      TEMPO 2202/2206 3SM -RA BR OVC005
     FM220600 VRB03KT 6SM BR VCSH SCT003 BKN035
     FM221100 VRB03KT 5SM -SHRA BR VCSH SCT003 BKN025 OVC030=

USA.gov is the U.S. government's official web portal to all federal, state and local government web resources and services.